Jasper, NY (14855)

12:06 PM EDT on July 26, 2016 (GMT -0400)
Sylvester | | Change Station

Elev 1811 ft 41.96 °N, 77.56 °W | Updated 4 minutes ago

Clear
Clear
75.5 °F
Feels Like 78 °F
N
9.0
Wind Variable Wind from NE
Gusts 9.0 mph

Today
High -- | Low -- °F
--% Chance of Precip.
Yesterday
High -- | Low -- °F
Precip. -- in
Pressure 30.04 in
Visibility 10.0 miles
Clouds Clear
Heat Index 78 °F
Dew Point 58 °F
Humidity 55%
Rainfall 0.00 in
Snow Depth Not available.
5:57 AM 8:34 PM
Waning Gibbous, 53% visible
METAR KELZ 261556Z AUTO 33007KT 10SM CLR 25/15 A3008 RMK AO2 SLP172 T02500150
Pressure 30.04 in
Visibility 10.0 miles
Clouds Clear
Heat Index 78 °F
Dew Point 58 °F
Humidity 55%
Rainfall 0.00 in
Snow Depth Not available.
5:57 AM 8:34 PM
Waning Gibbous, 53% visible
METAR KELZ 261556Z AUTO 33007KT 10SM CLR 25/15 A3008 RMK AO2 SLP172 T02500150

10-Day Weather Forecast

Almanac

Astronomy

Jul. 26, 2016 Rise Set
Actual Time
Civil Twilight
Nautical Twilight
Astronomical Twilight
Moon
Length of Visible Light
Length of Day
Tomorrow will be .
, % of the Moon is Illuminated

Today's Extremes

State Highs State Lows

Community

WunderPhotos

Upload Photos

1,927,625 photos uploaded!

WunderBlog® & News

Nearby

Air Quality

  Air Quality AQ Index Pollutant
Not available.

Snow Depth

Station Depth Elevation

Earthquake Activity

City Distance Mag. Time & Date
Minimum magnitude displayed is 2.5.

Coastal Water Temperatures

Place Temperature

Stations

Nearby Weather Stations

Station Location Temp. Windchill Dew Point Humidity Wind Precip. Elev Updated Type
                   

Watches & Warnings

There are currently no watches in effect.